Time,TemperatureF,DewpointF,PressureIn,WindDirection,WindDirectionDegrees,WindSpeedMPH,WindSpeedGustMPH,Humidity,HourlyPrecipIn,Conditions,Clouds,dailyrainin,SoftwareType,DateUTC
2013-01-26 00:01:00,59.8,56.6,30.18,NE,53,0.0,0.0,89,0.00,,OVC,0.00,WeatherDisplay:10.37,2013-01-26 05:01:00,
2013-01-26 00:03:00,59.9,56.6,30.18,NE,53,0.0,0.0,89,0.00,,OVC,0.00,WeatherDisplay:10.37,2013-01-26 05:03:00,
2013-01-26 00:09:00,59.9,56.6,30.18,NE,53,0.0,0.0,89,0.00,,OVC,0.00,WeatherDisplay:10.37,2013-01-26 05:09:00,
2013-01-26 00:13:00,59.9,56.6,30.18,NE,53,0.0,0.0,89,0.00,,OVC,0.00,WeatherDisplay:10.37,2013-01-26 05:13:00,
2013-01-26 00:19:00,59.8,56.6,30.18,NE,53,0.0,0.0,89,0.00,,OVC,0.00,WeatherDisplay:10.37,2013-01-26 05:19:00,
2013-01-26 00:24:00,59.6,56.4,30.18,NE,53,0.0,0.0,89,0.00,,OVC,0.00,WeatherDisplay:10.37,2013-01-26 05:24:00,
2013-01-26 00:29:00,59.6,56.7,30.18,NE,53,0.0,0.0,90,0.00,,OVC,0.00,WeatherDisplay:10.37,2013-01-26 05:29:00,
2013-01-26 00:34:00,59.8,56.9,30.18,NE,53,0.0,0.0,90,0.00,,OVC,0.00,WeatherDisplay:10.37,2013-01-26 05:34:00,
2013-01-26 00:39:00,59.9,57.0,30.18,NE,48,0.0,0.0,90,0.00,,OVC,0.00,WeatherDisplay:10.37,2013-01-26 05:39:00,
2013-01-26 00:44:00,60.1,57.5,30.18,NE,47,0.0,0.0,91,0.00,,OVC,0.00,WeatherDisplay:10.37,2013-01-26 05:44:00,
2013-01-26 00:49:00,60.2,57.6,30.18,NE,47,0.0,0.0,91,0.00,,OVC,0.00,WeatherDisplay:10.37,2013-01-26 05:49:00,
2013-01-26 00:54:00,60.2,57.6,30.18,NE,47,0.0,0.0,91,0.00,,OVC,0.00,WeatherDisplay:10.37,2013-01-26 05:54:00,
2013-01-26 00:59:00,60.2,57.6,30.17,NE,47,0.0,0.0,91,0.00,,OVC,0.00,WeatherDisplay:10.37,2013-01-26 05:59:00,
2013-01-26 01:04:00,60.1,57.5,30.17,NE,47,0.0,0.0,91,0.00,,OVC,0.00,WeatherDisplay:10.37,2013-01-26 06:04:00,
2013-01-26 01:09:00,60.1,57.5,30.17,NE,47,0.0,0.0,91,0.00,,OVC,0.00,WeatherDisplay:10.37,2013-01-26 06:09:00,
2013-01-26 01:14:00,60.1,57.5,30.18,NE,47,0.0,0.0,91,0.00,,OVC,0.00,WeatherDisplay:10.37,2013-01-26 06:14:00,
2013-01-26 01:19:00,60.1,57.5,30.18,NE,47,0.0,0.0,91,0.00,,OVC,0.00,WeatherDisplay:10.37,2013-01-26 06:19:00,
2013-01-26 01:24:00,59.9,57.3,30.18,NE,47,0.0,0.0,91,0.00,,OVC,0.00,WeatherDisplay:10.37,2013-01-26 06:24:00,
2013-01-26 01:29:00,59.8,57.2,30.18,NE,47,0.0,0.0,91,0.00,,OVC,0.00,WeatherDisplay:10.37,2013-01-26 06:29:00,
2013-01-26 01:34:00,59.8,57.2,30.18,NE,47,0.0,0.0,91,0.00,,OVC,0.00,WeatherDisplay:10.37,2013-01-26 06:34:00,
2013-01-26 01:39:00,59.6,57.0,30.18,NE,47,0.0,0.0,91,0.00,,OVC,0.00,WeatherDisplay:10.37,2013-01-26 06:39:00,
2013-01-26 01:44:00,59.5,56.9,30.17,NE,47,0.0,0.0,91,0.00,,OVC,0.00,WeatherDisplay:10.37,2013-01-26 06:44:00,
2013-01-26 01:49:00,59.5,56.9,30.17,NE,47,0.0,0.0,91,0.00,,OVC,0.00,WeatherDisplay:10.37,2013-01-26 06:49:00,
2013-01-26 01:54:00,59.3,57.0,30.17,NE,47,0.0,0.0,92,0.00,,OVC,0.00,WeatherDisplay:10.37,2013-01-26 06:54:00,
2013-01-26 01:59:00,59.5,57.2,30.17,NE,47,0.0,0.0,92,0.00,,OVC,0.00,WeatherDisplay:10.37,2013-01-26 06:59:00,
2013-01-26 02:04:00,59.5,57.2,30.17,NE,47,0.0,0.0,92,0.00,,OVC,0.00,WeatherDisplay:10.37,2013-01-26 07:04:00,
2013-01-26 02:09:00,59.3,57.0,30.17,NE,47,0.0,0.0,92,0.00,,OVC,0.00,WeatherDisplay:10.37,2013-01-26 07:09:00,
2013-01-26 02:14:00,59.0,56.7,30.17,NE,47,0.0,0.0,92,0.00,,OVC,0.00,WeatherDisplay:10.37,2013-01-26 07:14:00,
2013-01-26 02:19:00,58.9,56.6,30.17,NE,47,0.0,0.0,92,0.00,,OVC,0.00,WeatherDisplay:10.37,2013-01-26 07:19:00,
2013-01-26 02:24:00,58.7,56.4,30.17,NE,47,0.0,0.0,92,0.00,,OVC,0.00,WeatherDisplay:10.37,2013-01-26 07:24:00,
2013-01-26 02:29:00,58.6,56.3,30.17,NE,47,0.0,0.0,92,0.00,,OVC,0.00,WeatherDisplay:10.37,2013-01-26 07:29:00,
2013-01-26 02:34:00,58.9,56.6,30.17,NE,47,0.0,0.0,92,0.00,,OVC,0.00,WeatherDisplay:10.37,2013-01-26 07:34:00,
2013-01-26 02:39:00,59.2,56.9,30.17,NE,47,0.0,0.0,92,0.00,,OVC,0.00,WeatherDisplay:10.37,2013-01-26 07:39:00,
2013-01-26 02:44:00,59.0,56.7,30.16,NE,47,0.0,0.0,92,0.00,,OVC,0.00,WeatherDisplay:10.37,2013-01-26 07:44:00,
2013-01-26 02:49:00,58.7,56.4,30.16,NE,47,0.0,0.0,92,0.00,,OVC,0.00,WeatherDisplay:10.37,2013-01-26 07:49:00,
2013-01-26 02:54:00,58.6,56.3,30.16,NE,47,0.0,0.0,92,0.00,,OVC,0.00,WeatherDisplay:10.37,2013-01-26 07:54:00,
2013-01-26 02:59:00,58.3,56.0,30.16,NE,47,0.0,0.0,92,0.00,,OVC,0.00,WeatherDisplay:10.37,2013-01-26 07:59:00,
2013-01-26 03:04:00,58.3,56.0,30.16,NE,47,0.0,0.0,92,0.00,,OVC,0.00,WeatherDisplay:10.37,2013-01-26 08:04:00,
2013-01-26 03:09:00,58.0,55.7,30.16,NE,47,0.0,0.0,92,0.00,,OVC,0.00,WeatherDisplay:10.37,2013-01-26 08:09:00,
2013-01-26 03:14:00,57.8,55.5,30.16,NE,47,0.0,0.0,92,0.00,,OVC,0.00,WeatherDisplay:10.37,2013-01-26 08:14:00,
2013-01-26 03:19:00,57.6,55.6,30.16,NE,47,0.0,0.0,93,0.00,,OVC,0.00,WeatherDisplay:10.37,2013-01-26 08:19:00,
2013-01-26 03:24:00,57.6,55.6,30.16,NE,47,0.0,0.0,93,0.00,,OVC,0.00,WeatherDisplay:10.37,2013-01-26 08:24:00,
2013-01-26 03:29:00,57.6,55.6,30.16,NE,47,0.0,0.0,93,0.00,,OVC,0.00,WeatherDisplay:10.37,2013-01-26 08:29:00,
2013-01-26 03:34:00,57.6,55.6,30.16,NE,47,0.0,0.0,93,0.00,,OVC,0.00,WeatherDisplay:10.37,2013-01-26 08:34:00,
2013-01-26 03:39:00,57.5,55.5,30.16,NE,47,0.0,0.0,93,0.00,,OVC,0.00,WeatherDisplay:10.37,2013-01-26 08:39:00,
2013-01-26 03:44:00,57.5,55.5,30.16,NE,47,0.0,0.0,93,0.00,,OVC,0.00,WeatherDisplay:10.37,2013-01-26 08:44:00,
2013-01-26 03:49:00,57.5,55.5,30.16,NE,47,0.0,0.0,93,0.00,,OVC,0.00,WeatherDisplay:10.37,2013-01-26 08:49:00,
2013-01-26 03:54:00,57.5,55.5,30.16,NE,40,0.0,0.0,93,0.00,,OVC,0.00,WeatherDisplay:10.37,2013-01-26 08:54:00,
2013-01-26 03:59:00,57.5,55.5,30.16,NNW,328,0.0,0.0,93,0.00,,OVC,0.00,WeatherDisplay:10.37,2013-01-26 08:59:00,
2013-01-26 04:04:00,57.8,56.1,30.16,NNW,328,0.0,0.0,94,0.00,,OVC,0.00,WeatherDisplay:10.37,2013-01-26 09:04:00,
2013-01-26 04:09:00,58.0,56.3,30.16,NNW,328,0.0,0.0,94,0.00,,OVC,0.00,WeatherDisplay:10.37,2013-01-26 09:09:00,
2013-01-26 04:14:00,58.0,56.3,30.16,NW,312,3.5,3.5,94,0.00,,OVC,0.00,WeatherDisplay:10.37,2013-01-26 09:14:00,
2013-01-26 04:19:00,58.3,56.6,30.16,NW,312,0.0,0.0,94,0.00,,OVC,0.00,WeatherDisplay:10.37,2013-01-26 09:19:00,
2013-01-26 04:24:00,58.4,56.7,30.16,NW,311,0.0,0.0,94,0.00,,OVC,0.00,WeatherDisplay:10.37,2013-01-26 09:24:00,
2013-01-26 04:29:00,58.4,56.7,30.16,NW,310,5.0,5.0,94,0.00,,OVC,0.00,WeatherDisplay:10.37,2013-01-26 09:29:00,
2013-01-26 04:34:00,58.4,56.7,30.16,WNW,301,3.5,0.0,94,0.00,,OVC,0.00,WeatherDisplay:10.37,2013-01-26 09:34:00,
2013-01-26 04:39:00,58.3,56.6,30.16,WNW,302,7.0,7.0,94,0.00,,OVC,0.00,WeatherDisplay:10.37,2013-01-26 09:39:00,
2013-01-26 04:44:00,58.1,56.4,30.16,WNW,302,3.0,3.0,94,0.00,,OVC,0.00,WeatherDisplay:10.37,2013-01-26 09:44:00,
2013-01-26 04:49:00,58.0,56.3,30.16,WNW,303,0.0,0.0,94,0.00,,OVC,0.00,WeatherDisplay:10.37,2013-01-26 09:49:00,
2013-01-26 04:54:00,57.8,56.1,30.16,WNW,303,0.0,0.0,94,0.00,,OVC,0.00,WeatherDisplay:10.37,2013-01-26 09:54:00,
2013-01-26 04:59:00,57.5,55.8,30.16,WNW,303,0.0,0.0,94,0.00,,OVC,0.00,WeatherDisplay:10.37,2013-01-26 09:59:00,
2013-01-26 05:04:00,57.5,55.8,30.16,WNW,303,0.0,0.0,94,0.00,,OVC,0.00,WeatherDisplay:10.37,2013-01-26 10:04:00,
2013-01-26 05:09:00,57.3,55.6,30.16,NW,304,0.0,0.0,94,0.00,,OVC,0.00,WeatherDisplay:10.37,2013-01-26 10:09:00,
2013-01-26 05:14:00,57.3,55.6,30.17,NW,304,5.0,5.0,94,0.00,,OVC,0.00,WeatherDisplay:10.37,2013-01-26 10:14:00,
2013-01-26 05:19:00,57.2,55.5,30.17,NW,304,0.0,0.0,94,0.00,,OVC,0.00,WeatherDisplay:10.37,2013-01-26 10:19:00,
2013-01-26 05:24:00,57.2,55.5,30.17,NW,309,3.5,3.5,94,0.00,,OVC,0.00,WeatherDisplay:10.37,2013-01-26 10:24:00,
2013-01-26 05:29:00,57.3,55.6,30.17,NW,312,9.2,9.2,94,0.00,,OVC,0.00,WeatherDisplay:10.37,2013-01-26 10:29:00,
2013-01-26 05:34:00,57.3,55.6,30.17,NW,315,6.0,6.0,94,0.00,,OVC,0.00,WeatherDisplay:10.37,2013-01-26 10:34:00,
2013-01-26 05:39:00,57.5,55.8,30.17,NW,313,4.6,4.6,94,0.00,,OVC,0.00,WeatherDisplay:10.37,2013-01-26 10:39:00,
2013-01-26 05:44:00,57.5,55.8,30.17,NW,313,0.0,0.0,94,0.00,,OVC,0.00,WeatherDisplay:10.37,2013-01-26 10:44:00,
2013-01-26 05:49:00,57.3,55.6,30.17,NW,313,0.0,0.0,94,0.00,,OVC,0.00,WeatherDisplay:10.37,2013-01-26 10:49:00,
2013-01-26 05:55:00,57.3,55.6,30.17,NW,313,0.0,0.0,94,0.00,,OVC,0.00,WeatherDisplay:10.37,2013-01-26 10:55:00,
2013-01-26 06:00:00,57.3,55.6,30.17,NW,314,0.0,0.0,94,0.00,,OVC,0.00,WeatherDisplay:10.37,2013-01-26 11:00:00,
2013-01-26 06:05:00,57.2,55.5,30.17,NW,314,0.0,0.0,94,0.00,,OVC,0.00,WeatherDisplay:10.37,2013-01-26 11:05:00,
2013-01-26 06:10:00,57.2,55.5,30.17,NW,315,0.0,0.0,94,0.00,,OVC,0.00,WeatherDisplay:10.37,2013-01-26 11:10:00,
2013-01-26 06:15:00,57.2,55.5,30.17,NW,315,0.0,0.0,94,0.00,,OVC,0.00,WeatherDisplay:10.37,2013-01-26 11:15:00,
2013-01-26 06:20:00,57.2,55.5,30.17,NW,315,0.0,0.0,94,0.00,,OVC,0.00,WeatherDisplay:10.37,2013-01-26 11:20:00,
2013-01-26 06:25:00,57.0,55.3,30.17,NW,315,5.8,5.8,94,0.00,,OVC,0.00,WeatherDisplay:10.37,2013-01-26 11:25:00,
2013-01-26 06:30:00,57.2,55.5,30.18,NW,316,6.0,6.0,94,0.00,,OVC,0.00,WeatherDisplay:10.37,2013-01-26 11:30:00,
2013-01-26 06:35:00,57.2,55.5,30.18,NW,319,3.5,0.0,94,0.00,,OVC,0.00,WeatherDisplay:10.37,2013-01-26 11:35:00,
2013-01-26 06:40:00,57.2,55.5,30.18,NW,321,8.0,8.0,94,0.00,,OVC,0.00,WeatherDisplay:10.37,2013-01-26 11:40:00,
2013-01-26 06:45:00,57.2,55.5,30.18,NW,322,3.5,3.6,94,0.00,,OVC,0.00,WeatherDisplay:10.37,2013-01-26 11:45:00,
2013-01-26 06:50:00,57.0,55.3,30.18,NNW,329,11.5,11.5,94,0.00,,OVC,0.00,WeatherDisplay:10.37,2013-01-26 11:50:00,
2013-01-26 06:55:00,57.0,55.3,30.18,NNW,329,8.1,8.1,94,0.00,,OVC,0.00,WeatherDisplay:10.37,2013-01-26 11:55:00,
2013-01-26 07:00:00,56.9,55.2,30.18,NNW,329,6.9,6.9,94,0.00,,OVC,0.00,WeatherDisplay:10.37,2013-01-26 12:00:00,
2013-01-26 07:05:00,56.7,55.0,30.18,NNW,329,4.6,0.0,94,0.00,,OVC,0.00,WeatherDisplay:10.37,2013-01-26 12:05:00,
2013-01-26 07:10:00,56.7,54.7,30.18,NNW,328,6.9,0.0,93,0.00,,OVC,0.00,WeatherDisplay:10.37,2013-01-26 12:10:00,
2013-01-26 07:15:00,56.6,54.6,30.19,NW,325,8.1,8.1,93,0.00,,OVC,0.00,WeatherDisplay:10.37,2013-01-26 12:15:00,
2013-01-26 07:20:00,56.6,54.6,30.19,NNW,330,6.9,6.9,93,0.00,,OVC,0.00,WeatherDisplay:10.37,2013-01-26 12:20:00,
2013-01-26 07:25:00,56.6,54.3,30.19,NNW,334,11.5,11.5,92,0.00,,OVC,0.00,WeatherDisplay:10.37,2013-01-26 12:25:00,
2013-01-26 07:30:00,56.7,54.4,30.19,NNW,331,4.6,4.6,92,0.00,,OVC,0.00,WeatherDisplay:10.37,2013-01-26 12:30:00,
2013-01-26 07:35:00,56.7,54.4,30.19,NNW,327,11.5,11.5,92,0.00,,OVC,0.00,WeatherDisplay:10.37,2013-01-26 12:35:00,
2013-01-26 07:40:00,56.9,54.3,30.19,NNW,327,0.0,0.0,91,0.00,,OVC,0.00,WeatherDisplay:10.37,2013-01-26 12:40:00,
2013-01-26 07:45:00,56.9,54.3,30.20,NNW,327,0.0,0.0,91,0.00,,OVC,0.00,WeatherDisplay:10.37,2013-01-26 12:45:00,
2013-01-26 07:50:00,57.0,54.1,30.20,NNW,328,0.0,2.2,90,0.00,,OVC,0.00,WeatherDisplay:10.37,2013-01-26 12:50:00,
2013-01-26 07:55:00,57.2,54.0,30.20,NNW,336,3.5,3.5,89,0.00,,OVC,0.00,WeatherDisplay:10.37,2013-01-26 12:55:00,
2013-01-26 08:00:00,57.5,54.0,30.20,NNW,336,9.2,9.2,88,0.00,,OVC,0.00,WeatherDisplay:10.37,2013-01-26 13:00:00,
2013-01-26 08:05:00,57.8,54.0,30.20,NNW,338,0.0,0.0,87,0.00,,OVC,0.00,WeatherDisplay:10.37,2013-01-26 13:05:00,
2013-01-26 08:10:00,58.1,53.6,30.20,NNW,336,8.1,8.1,85,0.00,,OVC,0.00,WeatherDisplay:10.37,2013-01-26 13:10:00,
2013-01-26 08:15:00,58.6,53.5,30.21,NW,317,13.8,13.8,83,0.00,,OVC,0.00,WeatherDisplay:10.37,2013-01-26 13:15:00,
2013-01-26 08:20:00,58.9,53.1,30.21,NNW,343,8.0,12.1,81,0.00,,OVC,0.00,WeatherDisplay:10.37,2013-01-26 13:20:00,
2013-01-26 08:25:00,59.5,52.6,30.21,NNW,332,15.0,15.0,78,0.00,,OVC,0.00,WeatherDisplay:10.37,2013-01-26 13:25:00,
2013-01-26 08:30:00,60.2,52.2,30.21,North,5,13.8,13.8,75,0.00,,OVC,0.00,WeatherDisplay:10.37,2013-01-26 13:30:00,
2013-01-26 08:35:00,60.7,52.0,30.21,NW,305,11.5,11.5,73,0.00,,OVC,0.00,WeatherDisplay:10.37,2013-01-26 13:35:00,
2013-01-26 08:40:00,61.3,51.4,30.21,NNW,348,19.6,19.6,70,0.00,,OVC,0.00,WeatherDisplay:10.37,2013-01-26 13:40:00,
2013-01-26 08:45:00,62.0,51.3,30.21,NNW,344,11.0,11.0,68,0.00,,OVC,0.00,WeatherDisplay:10.37,2013-01-26 13:45:00,
2013-01-26 08:50:00,62.4,51.3,30.21,NW,323,8.1,8.1,67,0.00,,OVC,0.00,WeatherDisplay:10.37,2013-01-26 13:50:00,
2013-01-26 08:55:00,62.9,51.0,30.21,NW,323,13.0,13.0,65,0.00,,OVC,0.00,WeatherDisplay:10.37,2013-01-26 13:55:00,
2013-01-26 09:00:00,63.4,51.0,30.21,NW,325,10.4,10.4,64,0.00,CLR,OVC,0.00,WeatherDisplay:10.37,2013-01-26 14:00:00,
2013-01-26 09:05:00,63.9,51.1,30.21,NNW,334,10.4,10.4,63,0.00,CLR,OVC,0.00,WeatherDisplay:10.37,2013-01-26 14:05:00,
2013-01-26 09:10:00,64.5,51.6,30.21,NW,320,3.5,3.5,63,0.00,CLR,OVC,0.00,WeatherDisplay:10.37,2013-01-26 14:10:00,
2013-01-26 09:15:00,65.0,51.2,30.21,NW,317,12.7,12.7,61,0.00,CLR,OVC,0.00,WeatherDisplay:10.37,2013-01-26 14:15:00,
2013-01-26 09:20:00,65.6,52.2,30.21,NW,309,4.6,4.6,62,0.00,CLR,OVC,0.00,WeatherDisplay:10.37,2013-01-26 14:20:00,
2013-01-26 09:25:00,66.1,52.7,30.21,NW,306,4.6,4.6,62,0.00,CLR,OVC,0.00,WeatherDisplay:10.37,2013-01-26 14:25:00,
2013-01-26 09:30:00,66.4,52.1,30.22,NW,325,16.1,16.1,60,0.00,CLR,OVC,0.00,WeatherDisplay:10.37,2013-01-26 14:30:00,
2013-01-26 09:35:00,66.9,52.6,30.22,West,263,18.4,18.4,60,0.00,CLR,OVC,0.00,WeatherDisplay:10.37,2013-01-26 14:35:00,
2013-01-26 09:40:00,67.4,52.1,30.22,NNW,335,19.6,19.6,58,0.00,CLR,OVC,0.00,WeatherDisplay:10.37,2013-01-26 14:40:00,
2013-01-26 09:45:00,67.8,52.5,30.23,WNW,294,17.3,17.3,58,0.00,CLR,OVC,0.00,WeatherDisplay:10.37,2013-01-26 14:45:00,
2013-01-26 09:50:00,68.3,52.9,30.23,NNW,328,15.0,15.0,58,0.00,CLR,OVC,0.00,WeatherDisplay:10.37,2013-01-26 14:50:00,
2013-01-26 09:55:00,68.8,52.9,30.23,NW,325,16.1,16.1,57,0.00,CLR,OVC,0.00,WeatherDisplay:10.37,2013-01-26 14:55:00,
2013-01-26 10:00:00,69.3,53.4,30.23,NNW,340,15.0,15.0,57,0.00,CLR,OVC,0.00,WeatherDisplay:10.37,2013-01-26 15:00:00,
2013-01-26 10:05:00,69.8,54.4,30.23,NW,326,5.8,5.8,58,0.00,CLR,OVC,0.00,WeatherDisplay:10.37,2013-01-26 15:05:00,
2013-01-26 10:10:00,70.3,54.8,30.23,NNW,329,15.0,15.0,58,0.00,CLR,OVC,0.00,WeatherDisplay:10.37,2013-01-26 15:10:00,
2013-01-26 10:15:00,70.8,54.8,30.23,NNW,327,12.7,12.7,57,0.00,CLR,OVC,0.00,WeatherDisplay:10.37,2013-01-26 15:15:00,
2013-01-26 10:20:00,70.9,54.9,30.23,NNW,332,17.3,17.3,57,0.00,CLR,OVC,0.00,WeatherDisplay:10.37,2013-01-26 15:20:00,
2013-01-26 10:25:00,71.5,55.5,30.23,NW,320,17.3,17.3,57,0.00,CLR,OVC,0.00,WeatherDisplay:10.37,2013-01-26 15:25:00,
2013-01-26 10:30:00,71.6,55.6,30.23,NW,310,13.0,13.0,57,0.00,CLR,OVC,0.00,WeatherDisplay:10.37,2013-01-26 15:30:00,
2013-01-26 10:35:00,71.8,56.2,30.23,NNW,336,13.8,13.8,58,0.00,CLR,OVC,0.00,WeatherDisplay:10.37,2013-01-26 15:35:00,
2013-01-26 10:40:00,72.1,56.0,30.23,NNW,341,18.4,18.4,57,0.00,CLR,OVC,0.00,WeatherDisplay:10.37,2013-01-26 15:40:00,
2013-01-26 10:45:00,72.1,56.5,30.22,NNW,333,11.5,11.5,58,0.00,CLR,OVC,0.00,WeatherDisplay:10.37,2013-01-26 15:45:00,
2013-01-26 10:50:00,72.5,56.9,30.22,NW,315,19.6,19.6,58,0.00,CLR,OVC,0.00,WeatherDisplay:10.37,2013-01-26 15:50:00,
2013-01-26 10:55:00,72.7,58.0,30.22,NW,321,17.3,17.3,60,0.00,CLR,OVC,0.00,WeatherDisplay:10.37,2013-01-26 15:55:00,
2013-01-26 11:00:00,72.8,56.7,30.22,NNW,331,11.5,11.5,57,0.00,,OVC,0.00,WeatherDisplay:10.37,2013-01-26 16:00:00,
2013-01-26 11:05:00,73.0,57.3,30.22,NNW,342,13.8,13.8,58,0.00,,OVC,0.00,WeatherDisplay:10.37,2013-01-26 16:05:00,
2013-01-26 11:10:00,73.3,57.1,30.22,West,281,11.5,11.5,57,0.00,,OVC,0.00,WeatherDisplay:10.37,2013-01-26 16:10:00,
2013-01-26 11:15:00,73.7,57.0,30.21,NW,317,8.1,8.1,56,0.00,,OVC,0.00,WeatherDisplay:10.37,2013-01-26 16:15:00,
2013-01-26 11:20:00,73.9,57.2,30.21,NW,311,3.5,3.5,56,0.00,,OVC,0.00,WeatherDisplay:10.37,2013-01-26 16:20:00,
2013-01-26 11:25:00,74.4,56.7,30.21,NW,323,10.4,10.4,54,0.00,,OVC,0.00,WeatherDisplay:10.37,2013-01-26 16:25:00,
2013-01-26 11:30:00,74.6,57.4,30.21,NNW,327,11.5,11.5,55,0.00,,OVC,0.00,WeatherDisplay:10.37,2013-01-26 16:30:00,
2013-01-26 11:35:00,74.6,57.4,30.21,NW,326,12.7,12.7,55,0.00,,OVC,0.00,WeatherDisplay:10.37,2013-01-26 16:35:00,
2013-01-26 11:41:00,74.6,57.4,30.21,NW,323,12.7,12.7,55,0.00,,OVC,0.00,WeatherDisplay:10.37,2013-01-26 16:41:00,
2013-01-26 11:46:00,74.7,56.9,30.20,WNW,285,0.0,0.0,54,0.00,,OVC,0.00,WeatherDisplay:10.37,2013-01-26 16:46:00,
2013-01-26 11:51:00,75.1,56.8,30.20,WNW,298,13.8,13.8,53,0.00,,OVC,0.00,WeatherDisplay:10.37,2013-01-26 16:51:00,
2013-01-26 11:56:00,75.1,56.3,30.20,NNW,327,11.5,11.5,52,0.00,,OVC,0.00,WeatherDisplay:10.37,2013-01-26 16:56:00,
2013-01-26 12:01:00,75.3,57.0,30.20,WSW,248,0.0,0.0,53,0.00,,OVC,0.00,WeatherDisplay:10.37,2013-01-26 17:01:00,
2013-01-26 12:06:00,75.6,57.3,30.20,NW,315,0.0,0.0,53,0.00,,OVC,0.00,WeatherDisplay:10.37,2013-01-26 17:06:00,
2013-01-26 12:11:00,75.8,56.4,30.20,NNW,330,13.8,13.8,51,0.00,,OVC,0.00,WeatherDisplay:10.37,2013-01-26 17:11:00,
2013-01-26 12:16:00,75.8,56.9,30.19,NNW,346,15.0,15.0,52,0.00,,OVC,0.00,WeatherDisplay:10.37,2013-01-26 17:16:00,
2013-01-26 12:21:00,76.1,56.7,30.19,WNW,297,18.4,18.4,51,0.00,,OVC,0.00,WeatherDisplay:10.37,2013-01-26 17:21:00,
2013-01-26 12:26:00,76.3,57.4,30.19,NW,309,0.0,0.0,52,0.00,,OVC,0.00,WeatherDisplay:10.37,2013-01-26 17:26:00,
2013-01-26 12:31:00,76.1,56.7,30.18,WNW,292,9.0,9.0,51,0.00,,OVC,0.00,WeatherDisplay:10.37,2013-01-26 17:31:00,
2013-01-26 12:36:00,76.1,56.7,30.18,NW,311,11.5,11.5,51,0.00,,OVC,0.00,WeatherDisplay:10.37,2013-01-26 17:36:00,
2013-01-26 12:41:00,76.5,57.0,30.18,NNW,341,7.0,7.0,51,0.00,,OVC,0.00,WeatherDisplay:10.37,2013-01-26 17:41:00,
2013-01-26 12:46:00,76.5,56.5,30.17,NW,325,20.7,20.7,50,0.00,,OVC,0.00,WeatherDisplay:10.37,2013-01-26 17:46:00,
2013-01-26 12:51:00,76.5,57.0,30.17,NW,310,0.0,0.0,51,0.00,,OVC,0.00,WeatherDisplay:10.37,2013-01-26 17:51:00,
2013-01-26 12:56:00,76.7,56.7,30.17,WNW,300,0.0,0.0,50,0.00,,OVC,0.00,WeatherDisplay:10.37,2013-01-26 17:56:00,
2013-01-26 13:01:00,77.0,56.4,30.16,NW,313,0.0,0.0,49,0.00,,OVC,0.00,WeatherDisplay:10.37,2013-01-26 18:01:00,
2013-01-26 13:06:00,77.2,56.0,30.16,NW,323,15.0,15.0,48,0.00,,OVC,0.00,WeatherDisplay:10.37,2013-01-26 18:06:00,
2013-01-26 13:11:00,77.2,57.1,30.16,WNW,302,0.0,0.0,50,0.00,,OVC,0.00,WeatherDisplay:10.37,2013-01-26 18:11:00,
2013-01-26 13:16:00,77.6,56.4,30.15,WNW,286,12.7,12.7,48,0.00,,OVC,0.00,WeatherDisplay:10.37,2013-01-26 18:16:00,
2013-01-26 13:21:00,77.7,56.4,30.15,NW,311,0.0,0.0,48,0.00,,OVC,0.00,WeatherDisplay:10.37,2013-01-26 18:21:00,
2013-01-26 13:26:00,77.6,56.4,30.15,NNE,13,11.5,11.5,48,0.00,,OVC,0.00,WeatherDisplay:10.37,2013-01-26 18:26:00,
2013-01-26 13:31:00,77.4,56.2,30.15,North,355,0.0,0.0,48,0.00,,OVC,0.00,WeatherDisplay:10.37,2013-01-26 18:31:00,
2013-01-26 13:36:00,76.8,55.0,30.15,NNE,12,0.0,0.0,47,0.00,,OVC,0.00,WeatherDisplay:10.37,2013-01-26 18:36:00,
2013-01-26 13:41:00,77.4,55.6,30.15,NNE,12,0.0,0.0,47,0.00,,OVC,0.00,WeatherDisplay:10.37,2013-01-26 18:41:00,
2013-01-26 13:46:00,77.9,56.6,30.14,NW,316,3.5,3.5,48,0.00,,OVC,0.00,WeatherDisplay:10.37,2013-01-26 18:46:00,
2013-01-26 13:51:00,78.3,55.8,30.14,NE,38,0.0,0.0,46,0.00,,OVC,0.00,WeatherDisplay:10.37,2013-01-26 18:51:00,
2013-01-26 13:56:00,78.1,55.0,30.14,NE,39,0.0,0.0,45,0.00,,OVC,0.00,WeatherDisplay:10.37,2013-01-26 18:56:00,
2013-01-26 14:01:00,78.5,55.4,30.14,NNE,24,0.0,0.0,45,0.00,,OVC,0.00,WeatherDisplay:10.37,2013-01-26 19:01:00,
2013-01-26 14:06:00,78.5,55.4,30.14,WNW,289,0.0,0.0,45,0.00,,OVC,0.00,WeatherDisplay:10.37,2013-01-26 19:06:00,
2013-01-26 14:11:00,77.9,55.5,30.14,NW,306,0.0,0.0,46,0.00,,OVC,0.00,WeatherDisplay:10.37,2013-01-26 19:11:00,
2013-01-26 14:16:00,76.8,54.5,30.14,NE,37,8.1,8.1,46,0.00,,OVC,0.00,WeatherDisplay:10.37,2013-01-26 19:16:00,
2013-01-26 14:21:00,76.7,55.5,30.14,NE,36,4.6,4.6,48,0.00,,OVC,0.00,WeatherDisplay:10.37,2013-01-26 19:21:00,
2013-01-26 14:26:00,76.8,55.6,30.14,SW,227,9.2,9.2,48,0.00,,OVC,0.00,WeatherDisplay:10.37,2013-01-26 19:26:00,
2013-01-26 14:31:00,76.8,56.8,30.13,ENE,63,11.0,11.0,50,0.00,,OVC,0.00,WeatherDisplay:10.37,2013-01-26 19:31:00,
2013-01-26 14:36:00,76.1,57.7,30.13,NE,55,20.7,20.7,53,0.00,,OVC,0.00,WeatherDisplay:10.37,2013-01-26 19:36:00,
2013-01-26 14:41:00,75.3,57.0,30.13,NE,38,19.6,19.6,53,0.00,,OVC,0.00,WeatherDisplay:10.37,2013-01-26 19:41:00,
2013-01-26 14:46:00,74.9,57.1,30.13,NE,53,15.0,15.0,54,0.00,,OVC,0.00,WeatherDisplay:10.37,2013-01-26 19:46:00,
2013-01-26 14:51:00,74.7,57.5,30.13,ENE,70,11.5,11.5,55,0.00,,OVC,0.00,WeatherDisplay:10.37,2013-01-26 19:51:00,
2013-01-26 14:56:00,74.7,57.5,30.13,ENE,65,11.5,11.5,55,0.00,,OVC,0.00,WeatherDisplay:10.37,2013-01-26 19:56:00,
2013-01-26 15:01:00,75.1,57.8,30.13,NE,54,0.0,0.0,55,0.00,,OVC,0.00,WeatherDisplay:10.37,2013-01-26 20:01:00,
2013-01-26 15:06:00,75.6,57.8,30.13,East,95,1.1,0.0,54,0.00,,OVC,0.00,WeatherDisplay:10.37,2013-01-26 20:06:00,
2013-01-26 15:11:00,75.8,58.0,30.13,ENE,76,6.9,6.9,54,0.00,,OVC,0.00,WeatherDisplay:10.37,2013-01-26 20:11:00,
2013-01-26 15:16:00,76.1,58.2,30.13,East,84,0.0,0.0,54,0.00,,OVC,0.00,WeatherDisplay:10.37,2013-01-26 20:16:00,
2013-01-26 15:21:00,76.1,57.2,30.13,East,84,8.1,8.1,52,0.00,,OVC,0.00,WeatherDisplay:10.37,2013-01-26 20:21:00,
2013-01-26 15:26:00,76.1,57.7,30.13,NE,55,3.5,0.0,53,0.00,,OVC,0.00,WeatherDisplay:10.37,2013-01-26 20:26:00,
2013-01-26 15:31:00,76.3,57.9,30.13,ENE,74,0.0,1.3,53,0.00,,OVC,0.00,WeatherDisplay:10.37,2013-01-26 20:31:00,
2013-01-26 15:36:00,76.5,58.1,30.13,NNE,30,10.4,10.4,53,0.00,,OVC,0.00,WeatherDisplay:10.37,2013-01-26 20:36:00,
2013-01-26 15:41:00,76.3,58.4,30.13,ENE,66,17.0,17.0,54,0.00,,OVC,0.00,WeatherDisplay:10.37,2013-01-26 20:41:00,
2013-01-26 15:46:00,76.0,58.2,30.13,East,92,8.1,8.1,54,0.00,,OVC,0.00,WeatherDisplay:10.37,2013-01-26 20:46:00,
2013-01-26 15:51:00,75.8,58.5,30.13,NE,52,4.6,4.6,55,0.00,,OVC,0.00,WeatherDisplay:10.37,2013-01-26 20:51:00,
2013-01-26 15:56:00,75.6,58.3,30.13,ENE,67,12.7,12.7,55,0.00,,OVC,0.00,WeatherDisplay:10.37,2013-01-26 20:56:00,
2013-01-26 16:01:00,75.4,57.6,30.13,NE,34,11.5,11.5,54,0.00,,OVC,0.00,WeatherDisplay:10.37,2013-01-26 21:01:00,
2013-01-26 16:06:00,75.1,57.8,30.13,ENE,67,17.3,17.3,55,0.00,,OVC,0.00,WeatherDisplay:10.37,2013-01-26 21:06:00,
2013-01-26 16:11:00,74.7,58.5,30.13,NE,54,13.8,13.8,57,0.00,,OVC,0.00,WeatherDisplay:10.37,2013-01-26 21:11:00,
2013-01-26 16:16:00,74.6,58.4,30.13,ENE,74,12.7,12.7,57,0.00,,OVC,0.00,WeatherDisplay:10.37,2013-01-26 21:16:00,
2013-01-26 16:21:00,74.6,58.4,30.13,NE,45,11.5,11.5,57,0.00,,OVC,0.00,WeatherDisplay:10.37,2013-01-26 21:21:00,
2013-01-26 16:26:00,74.6,58.4,30.13,ENE,71,17.3,17.3,57,0.00,,OVC,0.00,WeatherDisplay:10.37,2013-01-26 21:26:00,
2013-01-26 16:32:00,74.2,58.0,30.13,East,92,13.8,13.8,57,0.00,,OVC,0.00,WeatherDisplay:10.37,2013-01-26 21:32:00,
2013-01-26 16:37:00,74.2,58.5,30.13,East,83,10.0,10.0,58,0.00,,OVC,0.00,WeatherDisplay:10.37,2013-01-26 21:37:00,
2013-01-26 16:42:00,74.0,58.3,30.13,NE,56,11.5,11.5,58,0.00,,OVC,0.00,WeatherDisplay:10.37,2013-01-26 21:42:00,
2013-01-26 16:47:00,73.9,58.7,30.14,ENE,64,19.0,19.0,59,0.00,,OVC,0.00,WeatherDisplay:10.37,2013-01-26 21:47:00,
2013-01-26 16:52:00,73.7,58.5,30.14,ENE,67,18.4,18.4,59,0.00,,OVC,0.00,WeatherDisplay:10.37,2013-01-26 21:52:00,
2013-01-26 16:57:00,73.5,58.3,30.14,ENE,60,11.5,11.5,59,0.00,,OVC,0.00,WeatherDisplay:10.37,2013-01-26 21:57:00,
2013-01-26 17:02:00,73.5,58.8,30.14,ENE,62,13.8,13.8,60,0.00,,OVC,0.00,WeatherDisplay:10.37,2013-01-26 22:02:00,
2013-01-26 17:07:00,73.5,58.8,30.14,NE,49,1.1,0.0,60,0.00,,OVC,0.00,WeatherDisplay:10.37,2013-01-26 22:07:00,
2013-01-26 17:12:00,73.5,58.8,30.14,ENE,57,0.0,0.0,60,0.00,,OVC,0.00,WeatherDisplay:10.37,2013-01-26 22:12:00,
2013-01-26 17:17:00,73.3,59.0,30.15,ENE,62,12.7,0.0,61,0.00,,OVC,0.00,WeatherDisplay:10.37,2013-01-26 22:17:00,
2013-01-26 17:22:00,73.2,59.4,30.15,ENE,65,0.0,0.0,62,0.00,,OVC,0.00,WeatherDisplay:10.37,2013-01-26 22:22:00,
2013-01-26 17:27:00,73.0,59.2,30.15,NE,51,1.1,0.0,62,0.00,,OVC,0.00,WeatherDisplay:10.37,2013-01-26 22:27:00,
2013-01-26 17:32:00,72.8,59.0,30.15,NNE,28,12.7,0.0,62,0.00,,OVC,0.00,WeatherDisplay:10.37,2013-01-26 22:32:00,
2013-01-26 17:37:00,72.5,59.2,30.15,East,83,5.0,5.0,63,0.00,,OVC,0.00,WeatherDisplay:10.37,2013-01-26 22:37:00,
2013-01-26 17:42:00,72.3,59.4,30.15,ENE,68,5.8,5.8,64,0.00,,OVC,0.00,WeatherDisplay:10.37,2013-01-26 22:42:00,
2013-01-26 17:47:00,72.0,59.2,30.15,ENE,61,0.0,0.0,64,0.00,,OVC,0.00,WeatherDisplay:10.37,2013-01-26 22:47:00,
2013-01-26 17:52:00,71.8,59.0,30.15,NE,56,9.2,9.2,64,0.00,,OVC,0.00,WeatherDisplay:10.37,2013-01-26 22:52:00,
2013-01-26 17:57:00,71.6,59.2,30.15,ENE,59,9.0,9.0,65,0.00,,OVC,0.00,WeatherDisplay:10.37,2013-01-26 22:57:00,
2013-01-26 18:02:00,71.5,59.1,30.15,ENE,61,2.3,0.0,65,0.00,,OVC,0.00,WeatherDisplay:10.37,2013-01-26 23:02:00,
2013-01-26 18:07:00,71.3,59.4,30.15,ENE,61,0.0,1.3,66,0.00,,OVC,0.00,WeatherDisplay:10.37,2013-01-26 23:07:00,
2013-01-26 18:12:00,70.9,59.0,30.15,ENE,61,0.0,0.0,66,0.00,,OVC,0.00,WeatherDisplay:10.37,2013-01-26 23:12:00,
2013-01-26 18:17:00,70.8,59.3,30.15,ENE,61,0.0,0.0,67,0.00,,OVC,0.00,WeatherDisplay:10.37,2013-01-26 23:17:00,
2013-01-26 18:22:00,70.4,58.9,30.15,ENE,61,0.0,0.0,67,0.00,,OVC,0.00,WeatherDisplay:10.37,2013-01-26 23:22:00,
2013-01-26 18:27:00,70.3,59.2,30.15,ENE,61,2.3,0.0,68,0.00,,OVC,0.00,WeatherDisplay:10.37,2013-01-26 23:27:00,
2013-01-26 18:32:00,70.1,59.0,30.16,ENE,60,0.0,0.0,68,0.00,,OVC,0.00,WeatherDisplay:10.37,2013-01-26 23:32:00,
2013-01-26 18:37:00,69.9,59.3,30.16,ENE,60,0.0,0.0,69,0.00,,OVC,0.00,WeatherDisplay:10.37,2013-01-26 23:37:00,
2013-01-26 18:42:00,69.6,59.0,30.16,ENE,60,0.0,0.0,69,0.00,,OVC,0.00,WeatherDisplay:10.37,2013-01-26 23:42:00,
2013-01-26 18:47:00,69.4,59.2,30.16,ENE,60,0.0,0.0,70,0.00,,OVC,0.00,WeatherDisplay:10.37,2013-01-26 23:47:00,
2013-01-26 18:52:00,69.1,58.9,30.16,ENE,60,0.0,0.0,70,0.00,,OVC,0.00,WeatherDisplay:10.37,2013-01-26 23:52:00,
2013-01-26 18:57:00,68.9,59.1,30.16,ENE,60,0.0,0.0,71,0.00,,OVC,0.00,WeatherDisplay:10.37,2013-01-26 23:57:00,
2013-01-26 19:02:00,68.8,59.0,30.16,ENE,60,0.0,0.0,71,0.00,,OVC,0.00,WeatherDisplay:10.37,2013-01-27 00:02:00,
2013-01-26 19:07:00,68.4,58.6,30.16,ENE,60,0.0,0.0,71,0.00,,OVC,0.00,WeatherDisplay:10.37,2013-01-27 00:07:00,
2013-01-26 19:12:00,68.3,58.9,30.16,ENE,60,0.0,0.0,72,0.00,,OVC,0.00,WeatherDisplay:10.37,2013-01-27 00:12:00,
2013-01-26 19:17:00,68.1,59.1,30.16,ENE,60,0.0,0.0,73,0.00,,OVC,0.00,WeatherDisplay:10.37,2013-01-27 00:17:00,
2013-01-26 19:22:00,67.8,58.8,30.16,ENE,60,0.0,0.0,73,0.00,,OVC,0.00,WeatherDisplay:10.37,2013-01-27 00:22:00,
2013-01-26 19:27:00,67.8,59.2,30.16,ENE,60,0.0,0.0,74,0.00,,OVC,0.00,WeatherDisplay:10.37,2013-01-27 00:27:00,
2013-01-26 19:32:00,67.6,59.0,30.16,ENE,60,0.0,0.0,74,0.00,,OVC,0.00,WeatherDisplay:10.37,2013-01-27 00:32:00,
2013-01-26 19:37:00,67.4,59.2,30.16,ENE,60,0.0,0.0,75,0.00,,OVC,0.00,WeatherDisplay:10.37,2013-01-27 00:37:00,
2013-01-26 19:42:00,67.4,59.6,30.16,ENE,60,0.0,0.0,76,0.00,,OVC,0.00,WeatherDisplay:10.37,2013-01-27 00:42:00,
2013-01-26 19:47:00,67.1,59.3,30.17,ENE,60,0.0,0.0,76,0.00,,OVC,0.00,WeatherDisplay:10.37,2013-01-27 00:47:00,
2013-01-26 19:52:00,66.9,59.1,30.17,ENE,60,0.0,0.0,76,0.00,,OVC,0.00,WeatherDisplay:10.37,2013-01-27 00:52:00,
2013-01-26 19:57:00,66.9,59.5,30.17,ENE,60,0.0,0.0,77,0.00,,OVC,0.00,WeatherDisplay:10.37,2013-01-27 00:57:00,
2013-01-26 20:02:00,66.8,59.4,30.17,ENE,60,0.0,0.0,77,0.00,,OVC,0.00,WeatherDisplay:10.37,2013-01-27 01:02:00,
2013-01-26 20:07:00,66.8,59.7,30.17,ENE,60,0.0,0.0,78,0.00,,OVC,0.00,WeatherDisplay:10.37,2013-01-27 01:07:00,
2013-01-26 20:12:00,66.8,59.7,30.17,ENE,60,0.0,0.0,78,0.00,,OVC,0.00,WeatherDisplay:10.37,2013-01-27 01:12:00,
2013-01-26 20:17:00,66.6,59.5,30.17,ENE,60,0.0,0.0,78,0.00,,OVC,0.00,WeatherDisplay:10.37,2013-01-27 01:17:00,
2013-01-26 20:22:00,66.4,59.3,30.17,ENE,60,0.0,0.0,78,0.00,,OVC,0.00,WeatherDisplay:10.37,2013-01-27 01:22:00,
2013-01-26 20:27:00,66.3,59.2,30.17,ENE,60,0.0,0.0,78,0.00,,OVC,0.00,WeatherDisplay:10.37,2013-01-27 01:27:00,
2013-01-26 20:32:00,66.3,59.6,30.17,ENE,60,0.0,0.0,79,0.00,,OVC,0.00,WeatherDisplay:10.37,2013-01-27 01:32:00,
2013-01-26 20:37:00,66.1,59.7,30.17,ENE,60,0.0,0.0,80,0.00,,OVC,0.00,WeatherDisplay:10.37,2013-01-27 01:37:00,
2013-01-26 20:42:00,66.1,59.7,30.17,ENE,60,0.0,0.0,80,0.00,,OVC,0.00,WeatherDisplay:10.37,2013-01-27 01:42:00,
2013-01-26 20:47:00,66.0,59.7,30.17,ENE,60,0.0,0.0,80,0.00,,OVC,0.00,WeatherDisplay:10.37,2013-01-27 01:47:00,
2013-01-26 20:52:00,66.0,60.0,30.17,ENE,60,0.0,0.0,81,0.00,,OVC,0.00,WeatherDisplay:10.37,2013-01-27 01:52:00,
2013-01-26 20:57:00,65.8,59.8,30.17,ENE,60,0.0,0.0,81,0.00,,OVC,0.00,WeatherDisplay:10.37,2013-01-27 01:57:00,
2013-01-26 21:02:00,65.6,59.6,30.17,ENE,60,0.0,0.0,81,0.00,,OVC,0.00,WeatherDisplay:10.37,2013-01-27 02:02:00,
2013-01-26 21:07:00,65.3,59.3,30.17,ENE,60,0.0,0.0,81,0.00,,OVC,0.00,WeatherDisplay:10.37,2013-01-27 02:07:00,
2013-01-26 21:12:00,65.0,59.0,30.17,ENE,60,0.0,0.0,81,0.00,,OVC,0.00,WeatherDisplay:10.37,2013-01-27 02:12:00,
2013-01-26 21:17:00,64.8,59.2,30.17,ENE,60,0.0,0.0,82,0.00,,OVC,0.00,WeatherDisplay:10.37,2013-01-27 02:17:00,
2013-01-26 21:22:00,64.8,59.2,30.17,ENE,60,0.0,0.0,82,0.00,,OVC,0.00,WeatherDisplay:10.37,2013-01-27 02:22:00,
2013-01-26 21:27:00,64.7,59.4,30.17,ENE,60,0.0,0.0,83,0.00,,OVC,0.00,WeatherDisplay:10.37,2013-01-27 02:27:00,
2013-01-26 21:32:00,64.5,59.2,30.17,ENE,60,0.0,0.0,83,0.00,,OVC,0.00,WeatherDisplay:10.37,2013-01-27 02:32:00,
2013-01-26 21:37:00,64.2,58.9,30.17,ENE,60,0.0,0.0,83,0.00,,OVC,0.00,WeatherDisplay:10.37,2013-01-27 02:37:00,
2013-01-26 21:42:00,64.0,59.1,30.17,ENE,60,0.0,0.0,84,0.00,,OVC,0.00,WeatherDisplay:10.37,2013-01-27 02:42:00,
2013-01-26 21:47:00,63.9,59.0,30.18,ENE,60,0.0,0.0,84,0.00,,OVC,0.00,WeatherDisplay:10.37,2013-01-27 02:47:00,
2013-01-26 21:52:00,63.7,58.8,30.18,ENE,60,0.0,0.0,84,0.00,,OVC,0.00,WeatherDisplay:10.37,2013-01-27 02:52:00,
2013-01-26 21:57:00,63.5,58.9,30.18,ENE,60,0.0,0.0,85,0.00,,OVC,0.00,WeatherDisplay:10.37,2013-01-27 02:57:00,
2013-01-26 22:02:00,63.4,58.8,30.18,ENE,60,0.0,0.0,85,0.00,,OVC,0.00,WeatherDisplay:10.37,2013-01-27 03:02:00,
2013-01-26 22:07:00,63.5,59.2,30.18,ENE,60,0.0,0.0,86,0.00,,OVC,0.00,WeatherDisplay:10.37,2013-01-27 03:07:00,
2013-01-26 22:12:00,63.7,59.4,30.18,ENE,60,0.0,0.0,86,0.00,,OVC,0.00,WeatherDisplay:10.37,2013-01-27 03:12:00,
2013-01-26 22:17:00,63.7,59.4,30.18,ENE,60,0.0,0.0,86,0.00,,OVC,0.00,WeatherDisplay:10.37,2013-01-27 03:17:00,
2013-01-26 22:22:00,63.5,59.2,30.18,ENE,60,0.0,0.0,86,0.00,,OVC,0.00,WeatherDisplay:10.37,2013-01-27 03:22:00,
2013-01-26 22:27:00,63.5,59.2,30.18,ENE,60,0.0,0.0,86,0.00,,OVC,0.00,WeatherDisplay:10.37,2013-01-27 03:27:00,
2013-01-26 22:32:00,63.4,59.1,30.18,ENE,60,0.0,0.0,86,0.00,,OVC,0.00,WeatherDisplay:10.37,2013-01-27 03:32:00,
2013-01-26 22:37:00,63.2,58.9,30.18,ENE,60,0.0,0.0,86,0.00,,OVC,0.00,WeatherDisplay:10.37,2013-01-27 03:37:00,
2013-01-26 22:43:00,63.1,58.8,30.18,ENE,58,0.0,0.0,86,0.00,,OVC,0.00,WeatherDisplay:10.37,2013-01-27 03:43:00,
2013-01-26 22:48:00,62.9,59.0,30.18,ENE,58,0.0,0.0,87,0.00,,OVC,0.00,WeatherDisplay:10.37,2013-01-27 03:48:00,
2013-01-26 22:53:00,62.7,58.8,30.18,ENE,58,0.0,0.0,87,0.00,,OVC,0.00,WeatherDisplay:10.37,2013-01-27 03:53:00,
2013-01-26 22:58:00,62.6,58.7,30.18,ENE,58,0.0,0.0,87,0.00,,OVC,0.00,WeatherDisplay:10.37,2013-01-27 03:58:00,
2013-01-26 23:03:00,62.4,58.8,30.18,ENE,58,0.0,0.0,88,0.00,,OVC,0.00,WeatherDisplay:10.37,2013-01-27 04:03:00,
2013-01-26 23:08:00,62.4,58.8,30.18,ENE,58,0.0,0.0,88,0.00,,OVC,0.00,WeatherDisplay:10.37,2013-01-27 04:08:00,
2013-01-26 23:13:00,62.3,58.7,30.18,ENE,58,0.0,0.0,88,0.00,,OVC,0.00,WeatherDisplay:10.37,2013-01-27 04:13:00,
2013-01-26 23:18:00,62.3,58.7,30.18,ENE,58,0.0,0.0,88,0.00,,OVC,0.00,WeatherDisplay:10.37,2013-01-27 04:18:00,
2013-01-26 23:23:00,62.1,58.5,30.18,ENE,58,0.0,0.0,88,0.00,,OVC,0.00,WeatherDisplay:10.37,2013-01-27 04:23:00,
2013-01-26 23:28:00,62.1,58.8,30.18,ENE,58,0.0,0.0,89,0.00,,OVC,0.00,WeatherDisplay:10.37,2013-01-27 04:28:00,
2013-01-26 23:33:00,62.0,58.7,30.18,ENE,58,0.0,0.0,89,0.00,,OVC,0.00,WeatherDisplay:10.37,2013-01-27 04:33:00,
2013-01-26 23:38:00,61.8,58.5,30.18,ENE,58,0.0,0.0,89,0.00,,OVC,0.00,WeatherDisplay:10.37,2013-01-27 04:38:00,
2013-01-26 23:43:00,61.8,58.5,30.18,ENE,58,0.0,0.0,89,0.00,,OVC,0.00,WeatherDisplay:10.37,2013-01-27 04:43:00,
2013-01-26 23:48:00,61.8,58.5,30.18,ENE,58,0.0,0.0,89,0.00,,OVC,0.00,WeatherDisplay:10.37,2013-01-27 04:48:00,
2013-01-26 23:53:00,61.8,58.5,30.18,ENE,58,0.0,0.0,89,0.00,,OVC,0.00,WeatherDisplay:10.37,2013-01-27 04:53:00,
2013-01-26 23:58:00,61.6,58.3,30.18,ENE,58,0.0,0.0,89,0.00,,OVC,0.00,WeatherDisplay:10.37,2013-01-27 04:58:00,